createdAt,value
2023-01-21T00:01:11.128Z,-2.20
2023-01-21T00:03:40.792Z,-2.20
2023-01-21T00:06:17.272Z,-2.20
2023-01-21T00:08:45.320Z,-2.10
2023-01-21T00:11:15.647Z,-2.10
2023-01-21T00:13:44.260Z,-2.10
2023-01-21T00:16:15.793Z,-2.10
2023-01-21T00:18:47.849Z,-2.00
2023-01-21T00:21:19.539Z,-2.00
2023-01-21T00:23:47.639Z,-1.90
2023-01-21T00:26:15.904Z,-1.90
2023-01-21T00:28:44.262Z,-1.80
2023-01-21T00:31:13.253Z,-1.70
2023-01-21T00:33:41.398Z,-1.70
2023-01-21T00:36:18.417Z,-1.60
2023-01-21T00:38:49.245Z,-1.50
2023-01-21T00:41:17.292Z,-1.50
2023-01-21T00:43:45.421Z,-1.40
2023-01-21T00:46:13.645Z,-1.40
2023-01-21T00:48:41.628Z,-1.30
2023-01-21T00:51:11.829Z,-1.20
2023-01-21T00:53:42.839Z,-1.10
2023-01-21T00:56:12.579Z,-1.10
2023-01-21T00:58:43.442Z,-1.00
2023-01-21T01:01:14.616Z,-1.00
2023-01-21T01:03:43.102Z,-0.90
2023-01-21T01:06:15.505Z,-0.90
2023-01-21T01:08:46.186Z,-0.90
2023-01-21T01:11:15.514Z,-0.80
2023-01-21T01:13:43.812Z,-0.80
2023-01-21T01:16:13.751Z,-0.80
2023-01-21T01:18:42.207Z,-0.70
2023-01-21T01:21:12.652Z,-0.60
2023-01-21T01:23:43.096Z,-0.70
2023-01-21T01:26:15.126Z,-0.60
2023-01-21T01:28:44.729Z,-0.60
2023-01-21T01:31:16.373Z,-0.50
2023-01-21T01:33:44.724Z,-0.50
2023-01-21T01:36:15.549Z,-0.40
2023-01-21T01:38:43.755Z,-0.40
2023-01-21T01:41:17.218Z,-0.40
2023-01-21T01:44:07.371Z,-0.30
2023-01-21T01:46:37.464Z,-0.30
2023-01-21T01:49:15.216Z,-0.30
2023-01-21T01:51:59.178Z,-0.20
2023-01-21T01:54:36.053Z,-0.20
2023-01-21T01:57:07.567Z,-0.20
2023-01-21T01:59:38.539Z,-0.20
2023-01-21T02:02:09.781Z,-0.10
2023-01-21T02:04:43.553Z,-0.10
2023-01-21T02:07:12.602Z,-0.10
2023-01-21T02:09:40.639Z,0.00
2023-01-21T02:12:10.044Z,0.00
2023-01-21T02:14:43.129Z,0.00
2023-01-21T02:17:37.568Z,0.10
2023-01-21T02:20:42.471Z,0.10
2023-01-21T02:23:18.269Z,0.10
2023-01-21T02:26:27.488Z,0.20
2023-01-21T02:29:18.519Z,0.20
2023-01-21T02:32:22.306Z,0.20
2023-01-21T02:35:02.300Z,0.20
2023-01-21T02:37:37.811Z,0.20
2023-01-21T02:40:14.868Z,0.20
2023-01-21T02:42:47.263Z,0.20
2023-01-21T02:45:24.914Z,0.10
2023-01-21T02:48:05.842Z,0.10
2023-01-21T02:50:37.045Z,0.00
2023-01-21T02:53:07.250Z,0.00
2023-01-21T02:55:37.826Z,0.00
2023-01-21T02:58:12.058Z,-0.10
2023-01-21T03:00:57.157Z,-0.10
2023-01-21T03:03:41.437Z,-0.10
2023-01-21T03:06:29.985Z,-0.10
2023-01-21T03:09:06.297Z,-0.20
2023-01-21T03:11:34.628Z,-0.20
2023-01-21T03:14:29.668Z,-0.20
2023-01-21T03:17:06.099Z,-0.20
2023-01-21T03:19:39.079Z,-0.20
2023-01-21T03:22:15.954Z,-0.30
2023-01-21T03:24:53.719Z,-0.30
2023-01-21T03:27:26.950Z,-0.40
2023-01-21T03:30:00.213Z,-0.40
2023-01-21T03:32:37.304Z,-0.40
2023-01-21T03:35:09.259Z,-0.40
2023-01-21T03:37:43.040Z,-0.40
2023-01-21T03:40:24.533Z,-0.30
2023-01-21T03:42:57.317Z,-0.30
2023-01-21T03:45:35.742Z,-0.30
2023-01-21T03:48:12.899Z,-0.20
2023-01-21T03:50:52.959Z,-0.20
2023-01-21T03:53:25.224Z,-0.20
2023-01-21T03:55:53.749Z,-0.20
2023-01-21T03:58:22.980Z,-0.20
2023-01-21T04:00:50.990Z,-0.20
2023-01-21T04:03:19.087Z,-0.20
2023-01-21T04:05:49.080Z,-0.20
2023-01-21T04:08:17.028Z,-0.20
2023-01-21T04:10:46.396Z,-0.20
2023-01-21T04:13:14.365Z,-0.20
2023-01-21T04:15:42.322Z,-0.20
2023-01-21T04:18:11.516Z,-0.20
2023-01-21T04:20:40.174Z,-0.20
2023-01-21T04:23:08.114Z,-0.10
2023-01-21T04:25:36.225Z,-0.10
2023-01-21T04:28:05.862Z,-0.20
2023-01-21T04:30:33.797Z,-0.20
2023-01-21T04:33:02.160Z,-0.20
2023-01-21T04:35:30.115Z,-0.20
2023-01-21T04:37:58.099Z,-0.20
2023-01-21T04:40:26.340Z,-0.20
2023-01-21T04:42:54.304Z,-0.20
2023-01-21T04:45:23.959Z,-0.10
2023-01-21T04:47:52.014Z,-0.10
2023-01-21T04:50:20.225Z,-0.10
2023-01-21T04:52:48.207Z,-0.10
2023-01-21T04:55:16.604Z,-0.10
2023-01-21T04:57:44.539Z,0.00
2023-01-21T05:00:16.975Z,0.00
2023-01-21T05:02:46.442Z,-0.10
2023-01-21T05:05:16.740Z,-0.10
2023-01-21T05:07:44.675Z,-0.10
2023-01-21T05:10:17.093Z,-0.20
2023-01-21T05:12:45.300Z,-0.20
2023-01-21T05:15:13.553Z,-0.20
2023-01-21T05:17:41.573Z,-0.20
2023-01-21T05:20:12.276Z,-0.20
2023-01-21T05:22:40.636Z,-0.20
2023-01-21T05:25:10.244Z,-0.20
2023-01-21T05:27:40.160Z,-0.10
2023-01-21T05:30:09.390Z,-0.10
2023-01-21T05:32:38.507Z,-0.10
2023-01-21T05:35:07.195Z,-0.10
2023-01-21T05:37:36.524Z,-0.10
2023-01-21T05:40:12.471Z,-0.20
2023-01-21T05:42:40.662Z,-0.20
2023-01-21T05:45:10.688Z,-0.10
2023-01-21T05:47:39.056Z,-0.10
2023-01-21T05:50:09.585Z,-0.20
2023-01-21T05:52:41.705Z,-0.20
2023-01-21T05:55:09.933Z,-0.20
2023-01-21T05:57:37.911Z,-0.20
2023-01-21T06:00:06.859Z,-0.10
2023-01-21T06:02:37.552Z,-0.10
2023-01-21T06:05:06.044Z,-0.10
2023-01-21T06:07:40.267Z,-0.10
2023-01-21T06:10:10.946Z,-0.10
2023-01-21T06:12:40.361Z,-0.10
2023-01-21T06:15:09.143Z,0.00
2023-01-21T06:17:43.585Z,-0.10
2023-01-21T06:20:13.063Z,0.00
2023-01-21T06:22:44.098Z,0.00
2023-01-21T06:25:13.542Z,0.00
2023-01-21T06:27:41.484Z,0.10
2023-01-21T06:30:11.364Z,0.10
2023-01-21T06:32:39.583Z,0.20
2023-01-21T06:35:08.145Z,0.20
2023-01-21T06:37:36.080Z,0.20
2023-01-21T06:40:04.350Z,0.20
2023-01-21T06:42:33.993Z,0.20
2023-01-21T06:45:02.008Z,0.30
2023-01-21T06:47:30.123Z,0.30
2023-01-21T06:49:58.074Z,0.30
2023-01-21T06:52:26.036Z,0.30
2023-01-21T06:54:54.233Z,0.30
2023-01-21T06:57:22.192Z,0.30
2023-01-21T06:59:51.508Z,0.30
2023-01-21T07:02:20.797Z,0.40
2023-01-21T07:04:51.317Z,0.40
2023-01-21T07:07:23.893Z,0.40
2023-01-21T07:09:52.718Z,0.40
2023-01-21T07:12:26.777Z,0.40
2023-01-21T07:14:56.151Z,0.50
2023-01-21T07:17:27.401Z,0.50
2023-01-21T07:19:55.391Z,0.50
2023-01-21T07:22:27.696Z,0.50
2023-01-21T07:24:55.635Z,0.50
2023-01-21T07:27:23.839Z,0.50
2023-01-21T07:29:51.817Z,0.50
2023-01-21T07:32:21.126Z,0.60
2023-01-21T07:34:50.415Z,0.60
2023-01-21T07:37:18.370Z,0.60
2023-01-21T07:39:46.316Z,0.60
2023-01-21T07:42:17.292Z,0.60
2023-01-21T07:44:45.231Z,0.60
2023-01-21T07:47:14.624Z,0.60
2023-01-21T07:49:44.115Z,0.50
2023-01-21T07:52:12.085Z,0.60
2023-01-21T07:54:40.333Z,0.60
2023-01-21T07:57:10.495Z,0.60
2023-01-21T07:59:38.447Z,0.70
2023-01-21T08:02:06.546Z,0.70
2023-01-21T08:04:34.662Z,0.70
2023-01-21T08:07:11.968Z,0.80
2023-01-21T08:09:40.980Z,0.80
2023-01-21T08:12:10.282Z,0.80
2023-01-21T08:14:38.712Z,0.80
2023-01-21T08:17:08.070Z,0.80
2023-01-21T08:19:36.031Z,0.80
2023-01-21T08:22:05.338Z,0.80
2023-01-21T08:24:35.419Z,0.80
2023-01-21T08:27:03.369Z,0.80
2023-01-21T08:29:31.350Z,0.80
2023-01-21T08:31:59.679Z,0.80
2023-01-21T08:34:27.736Z,0.70
2023-01-21T08:36:57.866Z,0.70
2023-01-21T08:39:27.480Z,0.70
2023-01-21T08:41:55.441Z,0.80
2023-01-21T08:44:23.740Z,0.80
2023-01-21T08:46:51.796Z,0.90
2023-01-21T08:49:21.735Z,0.90
2023-01-21T08:51:50.305Z,0.90
2023-01-21T08:54:18.777Z,1.00
2023-01-21T08:56:50.378Z,1.00
2023-01-21T08:59:19.981Z,1.10
2023-01-21T09:01:47.936Z,1.10
2023-01-21T09:04:16.455Z,1.20
2023-01-21T09:06:44.474Z,1.20
2023-01-21T09:09:12.877Z,1.30
2023-01-21T09:11:40.922Z,1.30
2023-01-21T09:14:10.421Z,1.30
2023-01-21T09:16:41.201Z,1.40
2023-01-21T09:19:09.175Z,1.40
2023-01-21T09:21:39.180Z,1.50
2023-01-21T09:24:07.866Z,1.50
2023-01-21T09:26:38.304Z,1.50
2023-01-21T09:29:06.307Z,1.50
2023-01-21T09:31:41.714Z,1.50
2023-01-21T09:34:11.829Z,1.50
2023-01-21T09:36:40.007Z,1.60
2023-01-21T09:39:08.065Z,1.70
2023-01-21T09:41:38.621Z,1.60
2023-01-21T09:44:17.355Z,1.70
2023-01-21T09:46:53.442Z,1.70
2023-01-21T09:49:27.359Z,1.80
2023-01-21T09:52:13.946Z,1.90
2023-01-21T09:54:41.982Z,1.80
2023-01-21T09:57:31.352Z,1.90
2023-01-21T10:00:16.590Z,1.90
2023-01-21T10:03:00.501Z,2.00
2023-01-21T10:05:55.652Z,2.00
2023-01-21T10:08:36.856Z,2.00
2023-01-21T10:11:22.039Z,2.00
2023-01-21T10:14:04.579Z,2.10
2023-01-21T10:16:40.603Z,2.10
2023-01-21T10:19:15.952Z,2.10
2023-01-21T10:21:51.722Z,2.20
2023-01-21T10:24:24.039Z,2.20
2023-01-21T10:26:54.626Z,2.20
2023-01-21T10:29:29.676Z,2.30
2023-01-21T10:32:02.275Z,2.30
2023-01-21T10:34:42.418Z,2.30
2023-01-21T10:37:18.818Z,2.30
2023-01-21T10:40:02.180Z,2.40
2023-01-21T10:42:54.840Z,2.40
2023-01-21T10:45:35.099Z,2.50
2023-01-21T10:48:12.646Z,2.50
2023-01-21T10:50:55.086Z,2.50
2023-01-21T10:53:37.941Z,2.50
2023-01-21T10:56:15.708Z,2.60
2023-01-21T10:58:49.697Z,2.60
2023-01-21T11:01:23.040Z,2.60
2023-01-21T11:03:59.130Z,2.70
2023-01-21T11:06:32.382Z,2.80
2023-01-21T11:09:04.121Z,2.80
2023-01-21T11:11:34.672Z,2.80
2023-01-21T11:14:03.318Z,2.80
2023-01-21T11:16:44.173Z,2.90
2023-01-21T11:19:18.644Z,2.90
2023-01-21T11:22:05.515Z,2.90
2023-01-21T11:24:46.244Z,2.90
2023-01-21T11:27:32.092Z,3.00
2023-01-21T11:30:00.218Z,3.00
2023-01-21T11:32:34.287Z,3.10
2023-01-21T11:35:04.774Z,3.00
2023-01-21T11:37:34.820Z,3.00
2023-01-21T11:40:08.758Z,3.10
2023-01-21T11:42:58.585Z,3.10
2023-01-21T11:45:40.336Z,3.10
2023-01-21T11:48:21.914Z,3.20
2023-01-21T11:50:49.988Z,3.20
2023-01-21T11:53:20.857Z,3.20
2023-01-21T11:55:50.955Z,3.20
2023-01-21T11:58:21.373Z,3.20
2023-01-21T12:00:53.407Z,3.20
2023-01-21T12:03:24.205Z,3.20
2023-01-21T12:05:54.316Z,3.20
2023-01-21T12:08:27.921Z,3.20
2023-01-21T12:10:58.720Z,3.30
2023-01-21T12:13:37.375Z,3.30
2023-01-21T12:16:23.523Z,3.30
2023-01-21T12:19:23.044Z,3.30
2023-01-21T12:22:09.498Z,3.30
2023-01-21T12:24:56.898Z,3.40
2023-01-21T12:27:43.920Z,3.40
2023-01-21T12:30:25.854Z,3.40
2023-01-21T12:32:59.993Z,3.40
2023-01-21T12:35:39.050Z,3.50
2023-01-21T12:38:16.856Z,3.50
2023-01-21T12:40:52.016Z,3.50
2023-01-21T12:43:25.287Z,3.40
2023-01-21T12:45:59.080Z,3.40
2023-01-21T12:48:31.546Z,3.40
2023-01-21T12:51:06.027Z,3.50
2023-01-21T12:53:42.366Z,3.50
2023-01-21T12:56:24.890Z,3.40
2023-01-21T12:58:57.883Z,3.40
2023-01-21T13:01:45.677Z,3.40
2023-01-21T13:04:41.870Z,3.50
2023-01-21T13:07:20.266Z,3.40
2023-01-21T13:09:58.150Z,3.40
2023-01-21T13:12:31.795Z,3.40
2023-01-21T13:15:06.630Z,3.40
2023-01-21T13:17:38.813Z,3.40
2023-01-21T13:20:16.053Z,3.40
2023-01-21T13:22:54.769Z,3.40
2023-01-21T13:25:29.606Z,3.30
2023-01-21T13:28:06.268Z,3.40
2023-01-21T13:30:42.443Z,3.30
2023-01-21T13:33:37.752Z,3.30
2023-01-21T13:36:19.664Z,3.30
2023-01-21T13:39:01.218Z,3.30
2023-01-21T13:41:47.042Z,3.40
2023-01-21T13:44:54.504Z,3.50
2023-01-21T13:47:35.813Z,3.60
2023-01-21T13:50:18.707Z,3.60
2023-01-21T13:53:07.546Z,3.60
2023-01-21T13:55:46.980Z,3.70
2023-01-21T14:03:49.461Z,3.50
2023-01-21T14:06:24.533Z,3.50
2023-01-21T14:08:58.418Z,3.40
2023-01-21T14:11:32.762Z,3.40
2023-01-21T14:14:32.544Z,3.40
2023-01-21T14:17:30.021Z,3.40
2023-01-21T14:20:30.961Z,3.40
2023-01-21T14:23:18.760Z,3.50
2023-01-21T14:26:22.317Z,3.50
2023-01-21T14:29:00.982Z,3.50
2023-01-21T14:31:35.883Z,3.50
2023-01-21T14:34:14.822Z,3.50
2023-01-21T14:36:55.169Z,3.50
2023-01-21T14:39:46.097Z,3.50
2023-01-21T14:42:17.692Z,3.50
2023-01-21T14:45:09.140Z,3.50
2023-01-21T14:47:52.014Z,3.50
2023-01-21T14:50:52.446Z,3.40
2023-01-21T14:53:24.461Z,3.40
2023-01-21T14:56:17.453Z,3.40
2023-01-21T14:58:52.396Z,3.40
2023-01-21T15:01:43.045Z,3.40
2023-01-21T15:04:24.488Z,3.30
2023-01-21T15:07:01.983Z,3.30
2023-01-21T15:09:34.977Z,3.30
2023-01-21T15:12:07.239Z,3.20
2023-01-21T15:14:40.903Z,3.30
2023-01-21T15:17:47.110Z,3.30
2023-01-21T15:20:45.135Z,3.30
2023-01-21T15:23:39.000Z,3.20
2023-01-21T15:26:31.433Z,3.10
2023-01-21T15:29:25.113Z,3.10
2023-01-21T15:31:54.469Z,3.00
2023-01-21T15:34:25.941Z,2.90
2023-01-21T15:36:58.090Z,2.90
2023-01-21T15:39:34.645Z,2.80
2023-01-21T15:42:15.987Z,2.80
2023-01-21T15:44:59.194Z,2.70
2023-01-21T15:47:41.807Z,2.60
2023-01-21T15:50:20.860Z,2.60
2023-01-21T15:53:16.517Z,2.50
2023-01-21T15:56:03.542Z,2.40
2023-01-21T15:58:43.490Z,2.40
2023-01-21T16:01:21.289Z,2.40
2023-01-21T16:04:05.352Z,2.30
2023-01-21T16:06:41.114Z,2.30
2023-01-21T16:09:10.748Z,2.20
2023-01-21T16:11:54.878Z,2.20
2023-01-21T16:14:37.837Z,2.30
2023-01-21T16:17:14.540Z,2.20
2023-01-21T16:19:47.619Z,2.20
2023-01-21T16:22:19.049Z,2.20
2023-01-21T16:24:50.761Z,2.20
2023-01-21T16:27:20.625Z,2.10
2023-01-21T16:29:55.339Z,2.10
2023-01-21T16:32:31.361Z,2.10
2023-01-21T16:35:00.517Z,2.10
2023-01-21T16:37:31.721Z,2.00
2023-01-21T16:40:38.343Z,1.90
2023-01-21T16:43:16.385Z,1.80
2023-01-21T16:45:50.912Z,1.70
2023-01-21T16:48:29.869Z,1.70
2023-01-21T16:50:58.408Z,1.60
2023-01-21T16:53:26.571Z,1.60
2023-01-21T16:56:00.881Z,1.60
2023-01-21T16:58:32.349Z,1.50
2023-01-21T17:01:07.580Z,1.40
2023-01-21T17:03:37.618Z,1.40
2023-01-21T17:06:12.003Z,1.40
2023-01-21T17:08:42.504Z,1.40
2023-01-21T17:11:12.689Z,1.30
2023-01-21T17:13:43.519Z,1.30
2023-01-21T17:16:28.987Z,1.30
2023-01-21T17:19:01.725Z,1.30
2023-01-21T17:21:37.993Z,1.20
2023-01-21T17:24:11.322Z,1.20
2023-01-21T17:26:44.995Z,1.10
2023-01-21T17:29:19.421Z,1.10
2023-01-21T17:31:56.124Z,1.10
2023-01-21T17:34:26.655Z,1.00
2023-01-21T17:36:57.831Z,1.00
2023-01-21T17:39:58.214Z,1.00
2023-01-21T17:42:31.257Z,0.90
2023-01-21T17:45:02.325Z,1.00
2023-01-21T17:47:32.860Z,1.00
2023-01-21T17:50:04.602Z,0.90
2023-01-21T17:52:34.559Z,0.90
2023-01-21T17:55:25.745Z,0.90
2023-01-21T17:57:54.749Z,0.80
2023-01-21T18:00:29.874Z,0.70
2023-01-21T18:02:58.380Z,0.70
2023-01-21T18:05:30.265Z,0.70
2023-01-21T18:08:00.891Z,0.60
2023-01-21T18:10:31.834Z,0.60
2023-01-21T18:12:59.822Z,0.60
2023-01-21T18:15:31.869Z,0.60
2023-01-21T18:18:01.591Z,0.50
2023-01-21T18:20:43.277Z,0.50
2023-01-21T18:23:14.744Z,0.50
2023-01-21T18:25:43.667Z,0.50
2023-01-21T18:28:18.450Z,0.50
2023-01-21T18:30:46.801Z,0.50
2023-01-21T18:33:22.313Z,0.40
2023-01-21T18:35:53.172Z,0.40
2023-01-21T18:38:27.339Z,0.40
2023-01-21T18:40:57.567Z,0.40
2023-01-21T18:43:26.356Z,0.40
2023-01-21T18:45:54.955Z,0.40
2023-01-21T18:48:28.697Z,0.40
2023-01-21T18:50:58.085Z,0.40
2023-01-21T18:53:26.800Z,0.40
2023-01-21T18:55:54.948Z,0.40
2023-01-21T18:58:23.088Z,0.50
2023-01-21T19:00:51.154Z,0.50
2023-01-21T19:03:19.271Z,0.50
2023-01-21T19:05:49.141Z,0.50
2023-01-21T19:08:21.842Z,0.60
2023-01-21T19:10:51.352Z,0.60
2023-01-21T19:13:19.761Z,0.60
2023-01-21T19:15:49.024Z,0.60
2023-01-21T19:18:18.095Z,0.50
2023-01-21T19:20:46.102Z,0.60
2023-01-21T19:23:17.512Z,0.60
2023-01-21T19:25:51.374Z,0.50
2023-01-21T19:28:19.789Z,0.50
2023-01-21T19:30:55.054Z,0.50
2023-01-21T19:33:24.589Z,0.50
2023-01-21T19:35:58.559Z,0.50
2023-01-21T19:38:27.277Z,0.40
2023-01-21T19:40:57.282Z,0.50
2023-01-21T19:43:25.248Z,0.50
2023-01-21T19:45:53.831Z,0.50
2023-01-21T19:48:23.385Z,0.50
2023-01-21T19:50:51.465Z,0.50
2023-01-21T19:53:23.286Z,0.50
2023-01-21T19:55:53.705Z,0.50
2023-01-21T19:58:25.148Z,0.50
2023-01-21T20:00:54.504Z,0.50
2023-01-21T20:03:24.749Z,0.50
2023-01-21T20:05:54.976Z,0.60
2023-01-21T20:08:24.823Z,0.60
2023-01-21T20:10:53.122Z,0.70
2023-01-21T20:13:22.799Z,0.80
2023-01-21T20:15:52.673Z,0.90
2023-01-21T20:18:25.516Z,0.90
2023-01-21T20:20:53.830Z,1.00
2023-01-21T20:23:23.514Z,1.00
2023-01-21T20:25:54.495Z,1.10
2023-01-21T20:28:25.600Z,1.10
2023-01-21T20:30:55.281Z,1.20
2023-01-21T20:33:26.386Z,1.20
2023-01-21T20:35:56.886Z,1.30
2023-01-21T20:38:30.040Z,1.30
2023-01-21T20:40:58.496Z,1.30
2023-01-21T20:43:29.752Z,1.40
2023-01-21T20:46:01.071Z,1.30
2023-01-21T20:48:32.840Z,1.30
2023-01-21T20:51:01.514Z,1.30
2023-01-21T20:53:36.648Z,1.30
2023-01-21T20:56:21.282Z,1.30
2023-01-21T20:58:51.102Z,1.40
2023-01-21T21:01:20.535Z,1.40
2023-01-21T21:03:49.304Z,1.40
2023-01-21T21:06:18.895Z,1.40
2023-01-21T21:08:49.659Z,1.30
2023-01-21T21:11:18.939Z,1.30
2023-01-21T21:13:50.352Z,1.30
2023-01-21T21:16:26.302Z,1.30
2023-01-21T21:18:54.574Z,1.20
2023-01-21T21:21:24.393Z,1.20
2023-01-21T21:23:54.917Z,1.20
2023-01-21T21:26:24.969Z,1.10
2023-01-21T21:28:55.302Z,1.10
2023-01-21T21:31:25.886Z,1.10
2023-01-21T21:33:54.028Z,1.10
2023-01-21T21:36:24.663Z,1.00
2023-01-21T21:38:55.443Z,1.00
2023-01-21T21:41:43.029Z,1.00
2023-01-21T21:44:13.904Z,1.00
2023-01-21T21:47:00.823Z,1.00
2023-01-21T21:49:29.422Z,1.10
2023-01-21T21:51:59.716Z,1.10
2023-01-21T21:54:36.060Z,1.00
2023-01-21T21:57:04.425Z,1.10
2023-01-21T21:59:47.652Z,1.10
2023-01-21T22:02:32.515Z,1.00
2023-01-21T22:05:08.147Z,1.00
2023-01-21T22:07:38.190Z,1.00
2023-01-21T22:13:32.221Z,0.90
2023-01-21T22:16:12.396Z,0.90
2023-01-21T22:18:42.200Z,0.90
2023-01-21T22:21:15.591Z,1.00
2023-01-21T22:23:44.305Z,1.00
2023-01-21T22:26:22.160Z,1.00
2023-01-21T22:29:05.114Z,1.00
2023-01-21T22:31:42.657Z,1.00
2023-01-21T22:34:22.250Z,1.00
2023-01-21T22:36:50.514Z,1.10
2023-01-21T22:39:24.366Z,1.00
2023-01-21T22:41:55.236Z,1.10
2023-01-21T22:44:25.815Z,1.10
2023-01-21T22:46:54.156Z,1.10
2023-01-21T22:49:23.782Z,1.10
2023-01-21T22:51:51.770Z,1.10
2023-01-21T22:54:21.254Z,1.10
2023-01-21T22:56:58.868Z,1.10
2023-01-21T22:59:29.215Z,1.10
2023-01-21T23:01:57.426Z,1.10
2023-01-21T23:04:33.274Z,1.20
2023-01-21T23:07:01.322Z,1.20
2023-01-21T23:09:32.018Z,1.20
2023-01-21T23:12:00.183Z,1.20
2023-01-21T23:14:38.640Z,1.20
2023-01-21T23:17:08.006Z,1.20
2023-01-21T23:19:39.881Z,1.20
2023-01-21T23:22:08.632Z,1.20
2023-01-21T23:24:42.961Z,1.20
2023-01-21T23:27:28.416Z,1.20
2023-01-21T23:30:43.483Z,1.20
2023-01-21T23:33:24.876Z,1.20
2023-01-21T23:36:04.240Z,1.30
2023-01-21T23:38:53.744Z,1.30
2023-01-21T23:41:24.719Z,1.30
2023-01-21T23:43:53.235Z,1.40
2023-01-21T23:49:35.620Z,1.30
2023-01-21T23:52:13.219Z,1.30
2023-01-21T23:54:41.503Z,1.40
2023-01-21T23:57:13.228Z,1.40
2023-01-21T23:59:43.268Z,1.30
